Aérodrome :
LOGIN :

S'inscrire | Disclaimer

   EN    FR    IT 

 










Légende :    VFR   VFR Marginal   IFR   IFR Intensif   IFR Très Intensif
Visi : 
Plafond : 
>= 8 km
>= 3000ft
5 à 8 km
1000 à 3000 ft
1500m à 5 km
500 à 1000 ft
800 à 1500m
200 à 500 ft
< 800m
< 200 ft
Symboles :   Orages  Brouillard  Fortes neiges  Fortes précipitations  Vent > 20 kt
SIGMETs :   Divers  Orages  Givrage  Turbulence  Onde Orograph.  Cendres Volcan.






- Altitude de l'aérodrome : 453 ft
- Code IATA : SBK


LFRT - St Brieuc Armor

DERNIER METAR :
  • 071430Z AUTO 23005KT 200V260 9999 OVC030 11/08 Q1017

METARs EXPIRÉS :
  • 071400Z AUTO 22006KT 9999 OVC032 11/08 Q1017
  • 071330Z AUTO 24005KT 9999 OVC032 11/09 Q1017
  • 071300Z AUTO 23005KT 200V260 9999 FEW018 OVC032 11/09 Q1018
  • 071230Z AUTO 26007KT 9999 FEW016 OVC027 11/09 Q1018
  • 071200Z AUTO 27004KT 240V320 9999 OVC028 11/08 Q1018

Prévision TAF périmée.



MET'MAP, la Météo Aéronautique d'un coup d'oeil ! - Copyright ORBIFLY Décembre 2007 - Disclaimer

ORBIFLY MET'MAP TEAM :

Programmation & Développement : Alexandra Zaïnal
Sur une idée originale de : Baudouin d'Aumeries
Assistance à la programmation : Marc-Olivier Méhu
Soutien technique & logistique : Manuel Goepfert

Contact : metmap@orbifly.com




SOURCES & CREDITS :

   NOAA